Time;durP1;ratioP1;P1;durP2;ratioP2;P2;SDS_P1;SDS_P2;PMS_P1;PMS_P2;Temp;Humidity;BMP_temperature;BMP_pressure;BME280_temperature;BME280_humidity;BME280_pressure;Samples;Min_cycle;Max_cycle;Signal;HPM_P1;HPM_P2
2023/11/08 00:01:41;;;;;;;8.25;2.38;;;;;;;;;;5113983;28;20054;-74
2023/11/08 00:04:07;;;;;;;4.63;2.10;;;;;;;;;;5095467;28;20058;-73
2023/11/08 00:06:33;;;;;;;5.72;2.05;;;;;;;;;;5095901;28;20035;-73
2023/11/08 00:08:59;;;;;;;6.28;2.35;;;;;;;;;;5114181;28;20040;-74
2023/11/08 00:11:25;;;;;;;6.20;2.38;;;;;;;;;;5113714;28;20046;-73
2023/11/08 00:13:51;;;;;;;2.60;2.33;;;;;;;;;;5095927;28;20039;-73
2023/11/08 00:16:17;;;;;;;6.13;2.65;;;;;;;;;;5095805;28;20095;-73
2023/11/08 00:18:46;;;;;;;5.40;2.70;;;;;;;;;;5095787;28;20092;-73
2023/11/08 00:21:11;;;;;;;6.57;3.22;;;;;;;;;;5091287;28;20028;-73
2023/11/08 00:23:39;;;;;;;6.65;2.63;;;;;;;;;;5113836;28;20041;-73
2023/11/08 00:26:06;;;;;;;6.30;2.70;;;;;;;;;;5112529;28;20036;-73
2023/11/08 00:28:32;;;;;;;4.00;2.47;;;;;;;;;;5095655;28;20043;-73
2023/11/08 00:30:58;;;;;;;3.92;2.70;;;;;;;;;;5095557;28;20114;-73
2023/11/08 00:33:24;;;;;;;6.47;2.63;;;;;;;;;;5095522;28;20070;-74
2023/11/08 00:35:53;;;;;;;4.88;2.70;;;;;;;;;;5113385;28;20039;-74
2023/11/08 00:38:18;;;;;;;5.30;2.58;;;;;;;;;;5078451;28;20040;-74
2023/11/08 00:40:44;;;;;;;4.43;2.67;;;;;;;;;;5113400;27;20084;-74
2023/11/08 00:43:10;;;;;;;4.90;2.83;;;;;;;;;;5095598;28;20040;-74
2023/11/08 00:45:36;;;;;;;8.73;3.40;;;;;;;;;;5095784;28;20104;-74
2023/11/08 00:48:02;;;;;;;5.53;3.30;;;;;;;;;;5113376;28;20031;-74
2023/11/08 00:50:29;;;;;;;4.03;3.00;;;;;;;;;;5094916;28;20055;-74
2023/11/08 00:52:58;;;;;;;6.57;3.10;;;;;;;;;;5078645;28;20342;-74
2023/11/08 00:55:24;;;;;;;9.65;3.28;;;;;;;;;;5078543;28;20462;-74
2023/11/08 00:57:49;;;;;;;4.90;3.30;;;;;;;;;;5112074;28;20062;-74
2023/11/08 01:00:17;;;;;;;6.07;3.53;;;;;;;;;;5112934;28;20028;-73
2023/11/08 01:02:44;;;;;;;9.38;3.30;;;;;;;;;;5094837;28;20163;-74
2023/11/08 01:05:10;;;;;;;6.63;3.50;;;;;;;;;;5095626;28;20039;-74
2023/11/08 01:07:36;;;;;;;7.80;3.42;;;;;;;;;;5078463;28;20035;-74
2023/11/08 01:10:02;;;;;;;6.47;3.10;;;;;;;;;;5112329;28;20040;-72
2023/11/08 01:12:29;;;;;;;7.22;3.17;;;;;;;;;;5074080;28;20059;-73
2023/11/08 01:14:55;;;;;;;7.38;3.38;;;;;;;;;;5056754;28;20532;-73
2023/11/08 01:17:21;;;;;;;3.78;2.83;;;;;;;;;;5073329;28;20129;-74
2023/11/08 01:19:47;;;;;;;4.32;3.00;;;;;;;;;;5056797;28;20452;-74
2023/11/08 01:22:12;;;;;;;8.55;3.70;;;;;;;;;;5056992;28;20549;-74
2023/11/08 01:24:41;;;;;;;6.85;3.53;;;;;;;;;;5056997;28;20459;-73
2023/11/08 01:27:07;;;;;;;5.88;3.60;;;;;;;;;;5057021;28;20083;-73
2023/11/08 01:29:32;;;;;;;6.45;3.70;;;;;;;;;;5090546;28;20375;-73
2023/11/08 01:31:58;;;;;;;8.10;3.28;;;;;;;;;;5056761;28;20051;-73
2023/11/08 01:34:24;;;;;;;6.90;3.40;;;;;;;;;;5073444;28;20033;-74
2023/11/08 01:36:50;;;;;;;8.38;3.40;;;;;;;;;;5040435;28;20130;-73
2023/11/08 01:39:16;;;;;;;8.25;3.30;;;;;;;;;;5091672;28;20048;-73
2023/11/08 01:41:49;;;;;;;7.60;3.53;;;;;;;;;;5075552;28;20039;-73
2023/11/08 01:44:18;;;;;;;9.57;3.28;;;;;;;;;;5092083;28;20050;-73
2023/11/08 01:46:55;;;;;;;6.95;3.33;;;;;;;;;;5114953;28;20043;-73
2023/11/08 01:49:27;;;;;;;9.63;3.38;;;;;;;;;;5097702;28;20467;-73
2023/11/08 01:51:54;;;;;;;14.73;3.60;;;;;;;;;;5098241;28;20493;-73
2023/11/08 01:54:20;;;;;;;7.40;3.20;;;;;;;;;;5097262;28;20035;-73
2023/11/08 01:56:46;;;;;;;5.85;3.45;;;;;;;;;;5095991;28;20051;-73
2023/11/08 01:59:16;;;;;;;7.85;3.60;;;;;;;;;;5078892;28;20050;-73
2023/11/08 02:01:43;;;;;;;7.38;3.60;;;;;;;;;;5060608;28;20436;-72
2023/11/08 02:04:12;;;;;;;6.88;3.00;;;;;;;;;;5111300;28;20040;-72
2023/11/08 02:06:42;;;;;;;6.47;3.42;;;;;;;;;;5112490;28;20031;-73
2023/11/08 02:09:09;;;;;;;6.22;3.40;;;;;;;;;;5094523;28;20051;-73
2023/11/08 02:11:38;;;;;;;12.77;3.97;;;;;;;;;;5077366;28;20076;-73
2023/11/08 02:14:05;;;;;;;7.88;3.85;;;;;;;;;;5077378;28;20043;-73
2023/11/08 02:16:32;;;;;;;10.32;3.67;;;;;;;;;;5094272;28;20088;-73
2023/11/08 02:18:59;;;;;;;5.82;3.25;;;;;;;;;;5094317;28;20404;-74
2023/11/08 02:21:28;;;;;;;5.50;3.50;;;;;;;;;;5060094;28;20043;-73
2023/11/08 02:23:55;;;;;;;9.98;3.47;;;;;;;;;;5094280;28;20071;-74
2023/11/08 02:26:21;;;;;;;6.65;3.33;;;;;;;;;;5049769;28;20126;-74
2023/11/08 02:28:47;;;;;;;9.35;3.28;;;;;;;;;;5020907;28;20049;-73
2023/11/08 02:31:17;;;;;;;7.03;3.75;;;;;;;;;;5020765;28;20165;-74
2023/11/08 02:33:42;;;;;;;7.63;3.25;;;;;;;;;;4997294;28;20050;-73
2023/11/08 02:36:08;;;;;;;10.30;3.67;;;;;;;;;;4964851;28;20385;-73
2023/11/08 02:38:34;;;;;;;7.65;3.65;;;;;;;;;;4957938;28;20117;-74
2023/11/08 02:41:00;;;;;;;8.27;3.80;;;;;;;;;;4958199;28;20129;-72
2023/11/08 02:43:25;;;;;;;9.20;3.22;;;;;;;;;;4974135;28;20055;-73
2023/11/08 02:45:53;;;;;;;7.20;3.30;;;;;;;;;;4958060;28;20553;-73
2023/11/08 02:48:19;;;;;;;8.00;3.63;;;;;;;;;;4926540;28;20047;-73
2023/11/08 02:50:45;;;;;;;5.55;3.40;;;;;;;;;;4941856;28;20058;-73
2023/11/08 02:53:12;;;;;;;5.00;3.72;;;;;;;;;;4926327;28;20054;-74
2023/11/08 02:55:37;;;;;;;6.80;3.30;;;;;;;;;;4958119;28;20122;-74
2023/11/08 02:58:03;;;;;;;9.10;3.63;;;;;;;;;;4957105;28;20168;-73
2023/11/08 03:00:29;;;;;;;6.70;3.53;;;;;;;;;;4996313;28;20030;-74
2023/11/08 03:02:55;;;;;;;9.45;3.90;;;;;;;;;;5002444;28;20118;-74
2023/11/08 03:05:22;;;;;;;6.45;3.72;;;;;;;;;;5036347;28;20466;-75
2023/11/08 03:07:52;;;;;;;8.73;3.85;;;;;;;;;;5052698;28;20098;-74
2023/11/08 03:10:21;;;;;;;9.98;4.00;;;;;;;;;;5055872;28;20413;-73
2023/11/08 03:12:50;;;;;;;6.15;3.67;;;;;;;;;;5097349;28;20568;-73
2023/11/08 03:15:21;;;;;;;8.68;4.10;;;;;;;;;;5096777;28;20099;-71
2023/11/08 03:17:47;;;;;;;9.73;4.07;;;;;;;;;;5079018;28;20043;-73
2023/11/08 03:20:13;;;;;;;8.82;3.75;;;;;;;;;;5091815;28;20436;-73
2023/11/08 03:22:39;;;;;;;10.63;4.13;;;;;;;;;;5087915;28;20036;-73
2023/11/08 03:25:06;;;;;;;7.85;3.67;;;;;;;;;;5097919;28;20041;-73
2023/11/08 03:27:33;;;;;;;5.70;3.65;;;;;;;;;;5094357;28;20086;-72
2023/11/08 03:29:58;;;;;;;7.10;4.13;;;;;;;;;;5094309;28;20043;-72
2023/11/08 03:32:27;;;;;;;13.57;3.92;;;;;;;;;;5078097;28;20358;-73
2023/11/08 03:34:53;;;;;;;7.07;3.67;;;;;;;;;;5102432;28;20028;-72
2023/11/08 03:37:20;;;;;;;6.68;3.47;;;;;;;;;;5104458;28;20040;-72
2023/11/08 03:39:46;;;;;;;7.72;4.18;;;;;;;;;;5070501;28;20123;-71
2023/11/08 03:42:12;;;;;;;9.20;3.95;;;;;;;;;;5102854;28;20632;-72
2023/11/08 03:44:38;;;;;;;9.68;3.88;;;;;;;;;;5088424;28;20110;-72
2023/11/08 03:47:05;;;;;;;12.63;4.25;;;;;;;;;;5102778;28;20493;-73
2023/11/08 03:49:34;;;;;;;8.95;4.28;;;;;;;;;;5087458;28;20055;-73
2023/11/08 03:52:01;;;;;;;12.70;4.70;;;;;;;;;;5100707;28;20036;-69
2023/11/08 03:54:26;;;;;;;10.82;3.95;;;;;;;;;;5078493;28;20024;-72
2023/11/08 03:56:52;;;;;;;7.65;4.45;;;;;;;;;;5102250;28;20099;-72
2023/11/08 03:59:18;;;;;;;10.32;4.40;;;;;;;;;;5069601;28;20044;-72
2023/11/08 04:01:45;;;;;;;7.50;4.10;;;;;;;;;;5101913;28;20390;-71
2023/11/08 04:04:11;;;;;;;8.45;4.07;;;;;;;;;;5084896;28;20028;-74
2023/11/08 04:06:37;;;;;;;12.18;4.70;;;;;;;;;;5087102;28;20135;-72
2023/11/08 04:09:04;;;;;;;9.20;4.50;;;;;;;;;;5101720;28;20321;-71
2023/11/08 04:11:30;;;;;;;11.13;4.03;;;;;;;;;;5094724;28;20054;-72
2023/11/08 04:13:56;;;;;;;12.45;5.28;;;;;;;;;;5100595;28;20470;-72
2023/11/08 04:16:22;;;;;;;8.38;4.80;;;;;;;;;;5103158;28;20040;-72
2023/11/08 04:18:48;;;;;;;10.93;4.68;;;;;;;;;;5104265;28;20043;-71
2023/11/08 04:21:15;;;;;;;9.75;4.35;;;;;;;;;;5091972;28;20357;-68
2023/11/08 04:23:41;;;;;;;9.80;4.95;;;;;;;;;;5105070;28;20478;-72
2023/11/08 04:26:08;;;;;;;10.10;4.28;;;;;;;;;;5092741;28;20066;-71
2023/11/08 04:28:37;;;;;;;7.80;4.38;;;;;;;;;;5075425;28;20050;-72
2023/11/08 04:31:03;;;;;;;9.73;5.10;;;;;;;;;;5092038;28;20028;-72
2023/11/08 04:33:29;;;;;;;8.45;4.70;;;;;;;;;;5066815;28;20040;-69
2023/11/08 04:35:55;;;;;;;11.60;4.50;;;;;;;;;;5075497;28;20092;-76
2023/11/08 04:38:21;;;;;;;12.35;4.70;;;;;;;;;;5054964;28;20064;-66
2023/11/08 04:40:46;;;;;;;7.88;4.68;;;;;;;;;;5057185;28;20131;-67
2023/11/08 04:43:13;;;;;;;7.18;4.53;;;;;;;;;;5056307;28;20474;-70
2023/11/08 04:45:40;;;;;;;14.30;4.78;;;;;;;;;;5038149;28;20382;-75
2023/11/08 04:48:05;;;;;;;10.35;4.78;;;;;;;;;;5055679;28;20048;-74
2023/11/08 04:50:31;;;;;;;12.80;5.10;;;;;;;;;;5056289;28;20474;-77
2023/11/08 04:52:57;;;;;;;13.48;5.25;;;;;;;;;;5071675;28;20039;-69
2023/11/08 04:55:24;;;;;;;9.75;4.72;;;;;;;;;;5067552;28;20060;-73
2023/11/08 04:57:50;;;;;;;10.88;4.90;;;;;;;;;;5035632;28;20121;-73
2023/11/08 05:00:17;;;;;;;8.77;4.50;;;;;;;;;;5035865;28;20040;-73
2023/11/08 05:02:44;;;;;;;13.55;4.72;;;;;;;;;;5035400;28;20033;-73
2023/11/08 05:05:10;;;;;;;9.38;4.80;;;;;;;;;;5035256;28;20047;-74
2023/11/08 05:07:36;;;;;;;8.52;4.70;;;;;;;;;;5034774;28;20033;-72
2023/11/08 05:10:02;;;;;;;5.38;4.28;;;;;;;;;;5050437;28;20142;-73
2023/11/08 05:12:30;;;;;;;9.70;4.53;;;;;;;;;;5087837;28;20036;-72
2023/11/08 05:14:56;;;;;;;10.43;4.95;;;;;;;;;;5054678;28;20497;-72
2023/11/08 05:17:22;;;;;;;11.27;5.07;;;;;;;;;;5072088;28;20036;-72
2023/11/08 05:19:48;;;;;;;11.07;4.43;;;;;;;;;;5054745;28;20135;-72
2023/11/08 05:22:16;;;;;;;7.55;4.57;;;;;;;;;;5072508;28;20713;-74
2023/11/08 05:24:43;;;;;;;7.18;4.20;;;;;;;;;;5051921;28;20051;-73
2023/11/08 05:27:11;;;;;;;7.22;4.50;;;;;;;;;;5052678;28;20055;-73
2023/11/08 05:29:39;;;;;;;10.38;4.30;;;;;;;;;;5050139;28;20040;-72
2023/11/08 05:32:04;;;;;;;8.98;4.50;;;;;;;;;;5014100;28;20045;-75
2023/11/08 05:34:31;;;;;;;7.15;4.10;;;;;;;;;;4997130;28;20494;-74
2023/11/08 05:36:58;;;;;;;9.60;4.78;;;;;;;;;;5010853;28;20036;-73
2023/11/08 05:39:27;;;;;;;11.32;4.20;;;;;;;;;;5009717;28;20052;-72
2023/11/08 05:41:53;;;;;;;6.20;3.60;;;;;;;;;;5026313;28;20045;-73
2023/11/08 05:44:19;;;;;;;9.20;4.28;;;;;;;;;;5043004;28;20045;-74
2023/11/08 05:46:48;;;;;;;12.77;4.32;;;;;;;;;;5010575;28;20029;-72
2023/11/08 05:49:14;;;;;;;8.65;4.03;;;;;;;;;;5008907;28;20156;-72
2023/11/08 05:51:42;;;;;;;9.77;4.50;;;;;;;;;;4977439;28;20053;-71
2023/11/08 05:56:56;;;;;;;14.88;5.68;;;;;;;;;;5792305;23;20134;-76
2023/11/08 05:59:22;;;;;;;7.00;3.92;;;;;;;;;;4951729;28;20078;-76
2023/11/08 06:01:47;;;;;;;6.00;4.00;;;;;;;;;;4952469;28;20047;-78
2023/11/08 06:04:13;;;;;;;15.45;4.72;;;;;;;;;;4924478;29;20031;-79
2023/11/08 06:06:38;;;;;;;6.88;3.97;;;;;;;;;;4956762;29;20043;-76
2023/11/08 06:09:06;;;;;;;6.47;3.95;;;;;;;;;;4955144;29;20050;-73
2023/11/08 06:11:31;;;;;;;9.88;3.80;;;;;;;;;;4956265;28;20050;-77
2023/11/08 06:13:57;;;;;;;12.60;4.05;;;;;;;;;;4939186;29;20121;-81
2023/11/08 06:16:23;;;;;;;15.73;4.50;;;;;;;;;;4939199;29;20039;-77
2023/11/08 06:18:48;;;;;;;11.05;4.07;;;;;;;;;;4939807;29;20175;-78
2023/11/08 06:21:15;;;;;;;6.95;4.47;;;;;;;;;;4957417;29;20035;-77
2023/11/08 06:23:41;;;;;;;8.35;3.97;;;;;;;;;;4960195;29;20043;-78
2023/11/08 06:26:07;;;;;;;8.07;4.65;;;;;;;;;;4938818;29;20053;-77
2023/11/08 06:28:32;;;;;;;13.13;5.10;;;;;;;;;;4955144;29;20047;-77
2023/11/08 06:30:58;;;;;;;11.43;4.38;;;;;;;;;;4955059;29;20178;-77
2023/11/08 06:33:24;;;;;;;10.82;4.07;;;;;;;;;;4970034;28;20620;-77
2023/11/08 06:35:50;;;;;;;10.23;4.20;;;;;;;;;;4954154;29;20104;-75
2023/11/08 06:38:16;;;;;;;6.35;4.10;;;;;;;;;;4939508;29;20062;-75
2023/11/08 06:40:41;;;;;;;14.80;4.13;;;;;;;;;;4954750;29;20035;-75
2023/11/08 06:43:07;;;;;;;9.90;3.92;;;;;;;;;;4955799;28;20121;-76
2023/11/08 06:45:34;;;;;;;6.18;4.05;;;;;;;;;;4955034;29;20043;-76
2023/11/08 06:47:59;;;;;;;8.00;4.60;;;;;;;;;;4954895;29;20393;-75
2023/11/08 06:50:25;;;;;;;10.32;4.65;;;;;;;;;;4938567;29;20046;-74
2023/11/08 06:52:51;;;;;;;8.13;3.83;;;;;;;;;;4955293;28;20393;-76
2023/11/08 06:55:17;;;;;;;8.73;4.05;;;;;;;;;;4938973;29;20047;-77
2023/11/08 06:57:47;;;;;;;7.15;4.22;;;;;;;;;;4956329;28;20117;-78
2023/11/08 07:00:14;;;;;;;9.80;4.03;;;;;;;;;;4954898;28;20098;-76
2023/11/08 07:02:40;;;;;;;6.75;3.67;;;;;;;;;;4954183;29;20089;-73
2023/11/08 07:05:06;;;;;;;5.68;3.55;;;;;;;;;;4954408;29;20428;-77
2023/11/08 07:07:32;;;;;;;7.63;3.88;;;;;;;;;;4937783;28;20046;-75
2023/11/08 07:09:57;;;;;;;11.77;3.97;;;;;;;;;;4934795;29;20063;-72
2023/11/08 07:12:23;;;;;;;9.95;4.10;;;;;;;;;;4937038;28;20066;-75
2023/11/08 07:14:48;;;;;;;9.43;3.67;;;;;;;;;;4954439;29;20495;-75
2023/11/08 07:17:14;;;;;;;10.38;3.63;;;;;;;;;;4939225;29;20050;-75
2023/11/08 07:19:41;;;;;;;8.00;3.63;;;;;;;;;;4954004;29;20043;-74
2023/11/08 07:22:07;;;;;;;7.18;3.22;;;;;;;;;;4953904;29;20130;-73
2023/11/08 07:24:33;;;;;;;7.63;3.17;;;;;;;;;;4958230;29;20133;-74
2023/11/08 07:26:59;;;;;;;6.07;3.22;;;;;;;;;;4954927;28;20388;-74
2023/11/08 07:29:24;;;;;;;8.10;3.10;;;;;;;;;;4954020;29;20039;-73
2023/11/08 07:31:53;;;;;;;9.07;3.20;;;;;;;;;;4937864;29;20031;-73
2023/11/08 07:34:22;;;;;;;7.00;3.00;;;;;;;;;;4954640;29;20039;-76
2023/11/08 07:36:49;;;;;;;8.98;3.42;;;;;;;;;;4955133;28;20043;-75
2023/11/08 07:39:15;;;;;;;9.98;3.13;;;;;;;;;;4937351;29;20125;-74
2023/11/08 07:41:41;;;;;;;6.70;3.17;;;;;;;;;;4953554;29;20035;-75
2023/11/08 07:44:07;;;;;;;4.05;3.30;;;;;;;;;;4937506;29;20057;-74
2023/11/08 07:46:33;;;;;;;5.90;2.83;;;;;;;;;;4937981;29;20031;-74
2023/11/08 07:48:59;;;;;;;7.55;3.20;;;;;;;;;;4953370;29;20061;-74
2023/11/08 07:51:25;;;;;;;9.52;3.30;;;;;;;;;;4953493;29;20069;-75
2023/11/08 07:53:51;;;;;;;9.75;3.65;;;;;;;;;;4955133;28;20078;-74
2023/11/08 07:56:17;;;;;;;7.40;3.78;;;;;;;;;;4937854;29;20440;-74
2023/11/08 07:58:43;;;;;;;5.85;3.40;;;;;;;;;;4937163;29;20476;-74
2023/11/08 08:01:11;;;;;;;6.35;3.53;;;;;;;;;;4953282;28;20035;-75
2023/11/08 08:03:37;;;;;;;6.32;3.17;;;;;;;;;;4953233;29;20071;-74
2023/11/08 08:06:05;;;;;;;7.18;2.97;;;;;;;;;;4953207;29;20066;-74
2023/11/08 08:08:31;;;;;;;8.73;3.70;;;;;;;;;;4954233;28;20094;-75
2023/11/08 08:10:57;;;;;;;5.00;2.88;;;;;;;;;;4937305;29;20045;-74
2023/11/08 08:13:22;;;;;;;5.70;3.03;;;;;;;;;;4954513;29;20054;-75
2023/11/08 08:15:48;;;;;;;6.70;3.30;;;;;;;;;;4937151;29;20073;-74
2023/11/08 08:18:14;;;;;;;8.57;3.20;;;;;;;;;;4952963;29;20110;-74
2023/11/08 08:20:40;;;;;;;6.75;3.25;;;;;;;;;;4936811;29;20035;-74
2023/11/08 08:23:09;;;;;;;7.05;3.63;;;;;;;;;;4953286;29;20082;-75
2023/11/08 08:25:37;;;;;;;13.70;4.18;;;;;;;;;;4953624;28;20061;-74
2023/11/08 08:28:03;;;;;;;6.15;3.65;;;;;;;;;;4953136;29;20069;-75
2023/11/08 08:30:29;;;;;;;11.50;4.00;;;;;;;;;;4952933;29;20043;-74
2023/11/08 08:32:57;;;;;;;13.20;4.00;;;;;;;;;;4954589;29;20133;-75
2023/11/08 08:35:23;;;;;;;6.80;3.40;;;;;;;;;;4953040;29;20027;-75
2023/11/08 08:37:48;;;;;;;13.05;3.92;;;;;;;;;;4936286;29;20039;-74
2023/11/08 08:40:14;;;;;;;7.07;3.65;;;;;;;;;;4953788;29;20046;-74
2023/11/08 08:42:40;;;;;;;8.05;3.50;;;;;;;;;;4953904;29;20046;-74
2023/11/08 08:45:08;;;;;;;7.53;3.33;;;;;;;;;;4936610;29;20066;-73
2023/11/08 08:47:34;;;;;;;9.57;3.95;;;;;;;;;;4953585;28;20066;-75
2023/11/08 08:50:01;;;;;;;9.50;3.95;;;;;;;;;;4953361;28;20441;-76
2023/11/08 08:52:27;;;;;;;11.63;3.53;;;;;;;;;;4937318;29;20101;-74
2023/11/08 08:54:52;;;;;;;8.93;3.72;;;;;;;;;;4951540;29;20043;-76
2023/11/08 08:57:18;;;;;;;12.80;4.20;;;;;;;;;;4951423;29;20382;-75
2023/11/08 08:59:44;;;;;;;9.20;3.42;;;;;;;;;;4919432;29;20429;-76
2023/11/08 09:02:10;;;;;;;7.47;3.35;;;;;;;;;;4950905;28;20031;-75
2023/11/08 09:04:36;;;;;;;10.40;3.28;;;;;;;;;;4935404;29;20039;-75
2023/11/08 09:07:03;;;;;;;8.25;3.40;;;;;;;;;;4903951;29;20039;-74
2023/11/08 09:09:29;;;;;;;7.88;3.65;;;;;;;;;;4951546;29;20058;-75
2023/11/08 09:11:55;;;;;;;12.77;3.45;;;;;;;;;;4950592;29;20039;-76
2023/11/08 09:14:20;;;;;;;7.70;3.08;;;;;;;;;;4951101;29;20043;-75
2023/11/08 09:16:46;;;;;;;6.90;3.03;;;;;;;;;;4935036;29;20109;-77
2023/11/08 09:19:12;;;;;;;6.72;3.53;;;;;;;;;;4950851;29;20429;-72
2023/11/08 09:21:38;;;;;;;8.43;3.83;;;;;;;;;;4934825;29;20047;-74
2023/11/08 09:24:06;;;;;;;8.27;3.22;;;;;;;;;;4934866;29;20042;-74
2023/11/08 09:26:33;;;;;;;9.00;3.10;;;;;;;;;;4952257;29;20418;-74
2023/11/08 09:28:59;;;;;;;8.70;4.85;;;;;;;;;;4936163;29;20039;-75
2023/11/08 09:31:26;;;;;;;8.25;4.22;;;;;;;;;;4936401;29;20519;-75
2023/11/08 09:33:52;;;;;;;7.70;3.33;;;;;;;;;;4935877;28;20031;-74
2023/11/08 09:36:18;;;;;;;11.70;3.58;;;;;;;;;;4951552;28;20046;-76
2023/11/08 09:38:44;;;;;;;10.18;3.80;;;;;;;;;;4951311;29;20058;-75
2023/11/08 09:41:10;;;;;;;8.70;3.92;;;;;;;;;;4935846;29;20453;-75
2023/11/08 09:43:36;;;;;;;7.78;3.50;;;;;;;;;;4951796;29;20203;-75
2023/11/08 09:46:05;;;;;;;9.65;3.80;;;;;;;;;;4951524;29;20046;-75
2023/11/08 09:48:31;;;;;;;7.97;3.80;;;;;;;;;;4936197;29;20039;-74
2023/11/08 09:50:56;;;;;;;7.18;3.08;;;;;;;;;;4936392;28;20326;-76
2023/11/08 09:53:22;;;;;;;10.35;3.30;;;;;;;;;;4951593;29;20427;-76
2023/11/08 09:55:49;;;;;;;4.72;3.13;;;;;;;;;;4951170;29;20039;-75
2023/11/08 09:58:16;;;;;;;10.95;3.10;;;;;;;;;;4950100;28;20057;-75
2023/11/08 10:00:43;;;;;;;5.55;3.10;;;;;;;;;;4933339;29;20054;-75
2023/11/08 10:03:09;;;;;;;5.97;3.08;;;;;;;;;;4949501;28;20132;-75
2023/11/08 10:05:36;;;;;;;7.97;2.78;;;;;;;;;;4949662;29;20035;-75
2023/11/08 10:08:09;;;;;;;7.90;2.80;;;;;;;;;;4934192;29;20034;-75
2023/11/08 10:10:37;;;;;;;7.50;2.95;;;;;;;;;;4934532;29;20050;-75
2023/11/08 10:13:04;;;;;;;6.38;2.90;;;;;;;;;;4950473;29;20031;-75
2023/11/08 10:15:31;;;;;;;5.93;2.83;;;;;;;;;;4951563;29;20043;-76
2023/11/08 10:17:56;;;;;;;6.53;2.70;;;;;;;;;;4952266;29;20040;-76
2023/11/08 10:20:26;;;;;;;7.20;3.20;;;;;;;;;;4952563;29;20062;-76
2023/11/08 10:22:52;;;;;;;7.07;2.85;;;;;;;;;;4951729;29;20401;-76
2023/11/08 10:25:18;;;;;;;9.88;3.30;;;;;;;;;;4952291;28;20050;-75
2023/11/08 10:27:59;;;;;;;8.02;3.05;;;;;;;;;;4952104;29;20109;-76
2023/11/08 10:30:26;;;;;;;;;;;;;;;;;;4936215;29;20442;-76
2023/11/08 10:33:05;;;;;;;6.45;2.75;;;;;;;;;;4951267;29;19915;-78
2023/11/08 10:35:34;;;;;;;9.13;2.60;;;;;;;;;;4935415;29;20090;-77
2023/11/08 10:38:00;;;;;;;4.75;2.70;;;;;;;;;;4948742;28;20039;-77
2023/11/08 10:40:29;;;;;;;4.55;2.63;;;;;;;;;;4932597;29;20049;-76
2023/11/08 10:42:57;;;;;;;8.77;2.92;;;;;;;;;;4932357;29;20028;-75
2023/11/08 10:45:23;;;;;;;3.53;2.67;;;;;;;;;;4916761;29;20043;-76
2023/11/08 10:47:49;;;;;;;6.05;2.58;;;;;;;;;;4950047;28;20036;-78
2023/11/08 10:50:16;;;;;;;8.35;2.67;;;;;;;;;;4936274;29;20067;-78
2023/11/08 10:52:48;;;;;;;8.35;3.28;;;;;;;;;;4935731;29;20035;-77
2023/11/08 10:55:14;;;;;;;7.10;3.10;;;;;;;;;;4919670;29;20086;-78
2023/11/08 10:57:41;;;;;;;11.18;3.05;;;;;;;;;;4935159;29;20063;-77
2023/11/08 11:00:08;;;;;;;13.57;2.55;;;;;;;;;;4935558;29;20075;-77
2023/11/08 11:02:37;;;;;;;6.32;2.90;;;;;;;;;;4935572;29;20039;-79
2023/11/08 11:05:04;;;;;;;10.75;2.55;;;;;;;;;;4936040;29;20055;-76
2023/11/08 11:07:31;;;;;;;5.47;2.22;;;;;;;;;;4937038;29;20036;-77
2023/11/08 11:09:58;;;;;;;8.07;2.58;;;;;;;;;;4935854;29;20035;-77
2023/11/08 11:12:35;;;;;;;6.10;2.42;;;;;;;;;;4918788;29;20031;-78
2023/11/08 11:15:08;;;;;;;8.07;2.40;;;;;;;;;;4919343;29;20382;-78
2023/11/08 11:17:37;;;;;;;7.97;2.60;;;;;;;;;;4919510;29;20044;-77
2023/11/08 11:20:10;;;;;;;11.63;2.80;;;;;;;;;;4934889;29;20560;-78
2023/11/08 11:22:35;;;;;;;6.82;2.50;;;;;;;;;;4935369;29;20042;-77
2023/11/08 11:25:01;;;;;;;8.30;2.92;;;;;;;;;;4952066;29;20036;-77
2023/11/08 11:27:33;;;;;;;5.60;2.42;;;;;;;;;;4937272;29;20047;-77
2023/11/08 11:30:14;;;;;;;4.68;2.30;;;;;;;;;;4935811;29;20230;-74
2023/11/08 11:32:46;;;;;;;;;;;;;;;;;;4919685;29;20032;-76
2023/11/08 11:35:43;;;;;;;5.05;2.42;;;;;;;;;;4934859;29;19946;-76
2023/11/08 11:38:10;;;;;;;4.80;2.30;;;;;;;;;;4903059;29;20059;-74
2023/11/08 11:40:41;;;;;;;6.43;2.55;;;;;;;;;;4919182;29;20142;-78
2023/11/08 11:43:33;;;;;;;9.68;2.92;;;;;;;;;;4936333;29;20040;-78
2023/11/08 11:46:00;;;;;;;6.05;2.30;;;;;;;;;;4935479;29;20081;-77
2023/11/08 11:48:42;;;;;;;6.95;2.58;;;;;;;;;;4935627;29;20374;-76
2023/11/08 11:51:07;;;;;;;9.73;2.58;;;;;;;;;;4938290;29;20374;-82
2023/11/08 11:53:33;;;;;;;6.97;2.85;;;;;;;;;;4923375;29;20036;-75
2023/11/08 11:56:08;;;;;;;8.82;2.70;;;;;;;;;;4934350;29;20035;-76
2023/11/08 11:58:35;;;;;;;4.75;2.35;;;;;;;;;;4934933;29;20098;-78
2023/11/08 12:01:04;;;;;;;7.63;2.40;;;;;;;;;;4919144;29;20044;-80
2023/11/08 12:03:32;;;;;;;5.32;2.53;;;;;;;;;;4937675;29;20047;-78
2023/11/08 12:05:57;;;;;;;6.45;2.25;;;;;;;;;;4920427;29;20099;-79
2023/11/08 12:08:23;;;;;;;8.82;2.38;;;;;;;;;;4945933;29;20501;-79
2023/11/08 12:10:49;;;;;;;8.95;2.70;;;;;;;;;;4935349;29;20096;-77
2023/11/08 12:13:15;;;;;;;9.68;2.63;;;;;;;;;;4950267;29;20155;-77
2023/11/08 12:15:40;;;;;;;8.05;2.70;;;;;;;;;;4935459;29;20497;-78
2023/11/08 12:18:08;;;;;;;4.95;2.40;;;;;;;;;;4950165;29;20048;-79
2023/11/08 12:20:40;;;;;;;7.30;3.00;;;;;;;;;;4934743;29;20048;-79
2023/11/08 12:23:06;;;;;;;;;;;;;;;;;;4936712;29;20039;-74
2023/11/08 12:25:36;;;;;;;7.78;3.35;;;;;;;;;;4933981;29;20391;-76
2023/11/08 12:28:03;;;;;;;9.38;3.03;;;;;;;;;;4933784;29;20039;-76
2023/11/08 12:30:32;;;;;;;7.10;2.75;;;;;;;;;;4933893;29;20036;-74
2023/11/08 12:32:58;;;;;;;5.53;3.10;;;;;;;;;;4949548;29;20043;-76
2023/11/08 12:35:23;;;;;;;9.75;3.55;;;;;;;;;;4933790;29;20050;-76
2023/11/08 12:37:49;;;;;;;14.32;3.63;;;;;;;;;;4934392;29;20441;-75
2023/11/08 12:40:18;;;;;;;6.00;2.90;;;;;;;;;;4918413;29;20401;-75
2023/11/08 12:42:44;;;;;;;11.18;3.10;;;;;;;;;;4935522;29;20398;-72
2023/11/08 12:45:10;;;;;;;9.38;2.65;;;;;;;;;;4934908;29;20043;-74
2023/11/08 12:47:36;;;;;;;10.55;3.00;;;;;;;;;;4961093;28;20072;-73
2023/11/08 12:50:10;;;;;;;6.80;3.13;;;;;;;;;;4952294;29;20122;-75
2023/11/08 12:52:35;;;;;;;8.40;3.08;;;;;;;;;;4953082;29;20126;-75
2023/11/08 12:55:02;;;;;;;4.13;2.80;;;;;;;;;;4952510;29;20601;-74
2023/11/08 12:57:30;;;;;;;11.48;3.50;;;;;;;;;;4953523;28;20088;-74
2023/11/08 12:59:56;;;;;;;4.93;3.17;;;;;;;;;;4936950;29;20050;-74
2023/11/08 13:02:21;;;;;;;10.65;3.70;;;;;;;;;;4953123;29;20043;-73
2023/11/08 13:04:48;;;;;;;9.10;3.90;;;;;;;;;;4936216;29;20047;-73
2023/11/08 13:07:13;;;;;;;10.88;3.75;;;;;;;;;;4952115;28;20046;-73
2023/11/08 13:09:40;;;;;;;16.85;3.90;;;;;;;;;;4936323;28;20031;-72
2023/11/08 13:12:08;;;;;;;10.10;3.55;;;;;;;;;;4935254;29;20429;-74
2023/11/08 13:14:34;;;;;;;13.60;4.00;;;;;;;;;;4952153;29;20090;-75
2023/11/08 13:17:00;;;;;;;12.05;4.60;;;;;;;;;;4953089;29;20050;-75
2023/11/08 13:19:25;;;;;;;11.15;4.93;;;;;;;;;;4953385;28;20050;-73
2023/11/08 13:21:51;;;;;;;11.55;4.70;;;;;;;;;;4935911;29;20039;-72
2023/11/08 13:24:17;;;;;;;13.73;5.28;;;;;;;;;;4951933;29;20031;-74
2023/11/08 13:26:42;;;;;;;10.27;5.10;;;;;;;;;;4952160;29;20043;-73
2023/11/08 13:29:09;;;;;;;21.88;5.63;;;;;;;;;;4951931;29;20094;-72
2023/11/08 13:31:36;;;;;;;15.90;6.05;;;;;;;;;;4936234;29;20504;-72
2023/11/08 13:34:05;;;;;;;15.45;6.03;;;;;;;;;;4952549;28;20032;-72
2023/11/08 13:36:31;;;;;;;16.85;4.97;;;;;;;;;;4935857;29;20047;-72
2023/11/08 13:38:56;;;;;;;17.02;5.20;;;;;;;;;;4952858;28;20051;-72
2023/11/08 13:41:22;;;;;;;14.60;5.80;;;;;;;;;;4936488;28;20043;-73
2023/11/08 13:43:48;;;;;;;15.98;5.60;;;;;;;;;;4952572;28;20077;-72
2023/11/08 13:46:13;;;;;;;12.15;5.20;;;;;;;;;;4952012;29;20047;-71
2023/11/08 13:48:39;;;;;;;9.70;5.10;;;;;;;;;;4935911;29;20665;-70
2023/11/08 13:51:06;;;;;;;14.07;5.13;;;;;;;;;;4936341;29;20588;-73
2023/11/08 13:53:33;;;;;;;8.85;4.40;;;;;;;;;;4951623;29;20036;-73
2023/11/08 13:55:59;;;;;;;12.77;4.53;;;;;;;;;;4952442;28;20039;-73
2023/11/08 13:58:26;;;;;;;10.82;4.25;;;;;;;;;;4952302;29;20063;-74
2023/11/08 14:00:51;;;;;;;14.57;4.65;;;;;;;;;;4951326;29;20097;-74
2023/11/08 14:03:17;;;;;;;8.60;4.70;;;;;;;;;;4951608;29;20126;-73
2023/11/08 14:05:43;;;;;;;23.75;5.13;;;;;;;;;;4951493;29;20031;-74
2023/11/08 14:08:08;;;;;;;14.15;4.63;;;;;;;;;;4962074;28;20374;-72
2023/11/08 14:10:36;;;;;;;12.23;5.75;;;;;;;;;;4916411;29;20466;-74
2023/11/08 14:13:03;;;;;;;11.07;4.97;;;;;;;;;;4915698;29;20393;-74
2023/11/08 14:15:30;;;;;;;7.53;4.68;;;;;;;;;;4932457;29;20035;-73
2023/11/08 14:17:57;;;;;;;14.93;5.72;;;;;;;;;;4932746;29;20052;-72
2023/11/08 14:20:23;;;;;;;12.98;6.00;;;;;;;;;;4933446;29;20039;-74
2023/11/08 14:22:48;;;;;;;13.10;6.25;;;;;;;;;;4933494;29;20101;-73
2023/11/08 14:25:14;;;;;;;14.43;5.95;;;;;;;;;;4936064;29;20035;-75
2023/11/08 14:27:40;;;;;;;12.93;5.97;;;;;;;;;;4920275;29;20478;-71
2023/11/08 14:30:07;;;;;;;23.15;6.35;;;;;;;;;;4936367;29;20523;-75
2023/11/08 14:32:32;;;;;;;14.85;7.00;;;;;;;;;;4936334;29;20525;-74
2023/11/08 14:34:58;;;;;;;13.07;6.05;;;;;;;;;;4936571;29;20138;-74
2023/11/08 14:37:23;;;;;;;16.40;6.43;;;;;;;;;;4921049;29;20050;-74
2023/11/08 14:39:50;;;;;;;15.65;7.72;;;;;;;;;;4935213;29;20110;-73
2023/11/08 14:42:15;;;;;;;11.98;5.07;;;;;;;;;;4935834;29;20553;-74